createdAt,value
2018-03-19T00:00:19.709Z,81.99
2018-03-19T00:01:19.950Z,82.75
2018-03-19T00:02:19.917Z,83.5
2018-03-19T00:03:19.644Z,83.69
2018-03-19T00:04:19.741Z,84.45
2018-03-19T00:05:19.850Z,84.35
2018-03-19T00:06:19.814Z,84.35
2018-03-19T00:07:19.823Z,84.26
2018-03-19T00:08:19.769Z,84.35
2018-03-19T00:09:19.472Z,84.54
2018-03-19T00:10:19.452Z,83.88
2018-03-19T00:11:19.689Z,84.82
2018-03-19T00:12:19.813Z,84.92
2018-03-19T00:13:19.640Z,85.49
2018-03-19T00:14:19.608Z,85.58
2018-03-19T00:15:19.590Z,86.15
2018-03-19T00:16:19.552Z,85.96
2018-03-19T00:17:19.279Z,85.68
2018-03-19T00:18:19.506Z,86.05
2018-03-19T00:19:19.546Z,85.58
2018-03-19T00:20:19.211Z,85.77
2018-03-19T00:21:19.421Z,85.3
2018-03-19T00:22:19.411Z,85.01
2018-03-19T00:23:19.378Z,84.35
2018-03-19T00:24:19.128Z,84.35
2018-03-19T00:25:19.367Z,84.35
2018-03-19T00:26:19.051Z,84.07
2018-03-19T00:27:19.265Z,83.4
2018-03-19T00:28:19.301Z,83.78
2018-03-19T00:29:19.233Z,83.69
2018-03-19T00:30:18.923Z,83.12
2018-03-19T00:31:18.892Z,82.75
2018-03-19T00:32:18.870Z,82.37
2018-03-19T00:33:18.844Z,81.52
2018-03-19T00:34:18.934Z,80.85
2018-03-19T00:35:19.111Z,80.76
2018-03-19T00:36:18.759Z,79.82
2018-03-19T00:37:18.769Z,79.82
2018-03-19T00:38:18.712Z,79.44
2018-03-19T00:39:18.684Z,79.35
2018-03-19T00:40:18.924Z,78.87
2018-03-19T00:41:18.630Z,78.02
2018-03-19T00:42:18.925Z,77.83
2018-03-19T00:43:18.845Z,77.83
2018-03-19T00:44:18.819Z,77.64
2018-03-19T00:45:18.529Z,77.45
2018-03-19T00:46:18.762Z,78.02
2018-03-19T00:47:18.743Z,77.93
2018-03-19T00:48:18.714Z,77.17
2018-03-19T00:49:18.682Z,77.26
2018-03-19T00:50:18.392Z,77.17
2018-03-19T00:51:18.372Z,76.61
2018-03-19T00:52:18.610Z,76.7
2018-03-19T00:53:18.590Z,76.42
2018-03-19T00:54:18.288Z,76.32
2018-03-19T00:55:18.260Z,75.66
2018-03-19T00:56:18.539Z,75
2018-03-19T00:57:18.490Z,74.62
2018-03-19T00:58:18.446Z,74.9
2018-03-19T00:59:18.429Z,75.38
2018-03-19T01:00:18.129Z,75.76
2018-03-19T01:01:18.477Z,75.47
2018-03-19T01:02:18.076Z,75.57
2018-03-19T01:03:18.049Z,75.28
2018-03-19T01:04:18.423Z,76.23
2018-03-19T01:05:18.186Z,76.23
2018-03-19T01:06:18.237Z,75.95
2018-03-19T01:07:18.219Z,75.85
2018-03-19T01:08:18.186Z,75.85
2018-03-19T01:09:18.163Z,75.57
2018-03-19T01:10:17.892Z,74.81
2018-03-19T01:11:17.841Z,74.62
2018-03-19T01:12:18.091Z,74.81
2018-03-19T01:13:17.798Z,74.43
2018-03-19T01:14:18.042Z,74.53
2018-03-19T01:15:18.002Z,74.34
2018-03-19T01:16:17.714Z,74.9
2018-03-19T01:17:17.970Z,74.71
2018-03-19T01:18:17.923Z,75.57
2018-03-19T01:19:17.896Z,75.38
2018-03-19T01:20:17.871Z,75.85
2018-03-19T01:21:17.842Z,75.66
2018-03-19T01:22:17.816Z,75.66
2018-03-19T01:23:17.791Z,74.9
2018-03-19T01:24:17.494Z,74.53
2018-03-19T01:25:17.470Z,74.53
2018-03-19T01:26:17.734Z,74.71
2018-03-19T01:27:17.488Z,74.62
2018-03-19T01:28:17.396Z,74.53
2018-03-19T01:29:17.626Z,74.71
2018-03-19T01:30:17.341Z,74.9
2018-03-19T01:31:17.309Z,74.62
2018-03-19T01:32:17.551Z,74.43
2018-03-19T01:33:17.529Z,74.53
2018-03-19T01:34:17.281Z,74.62
2018-03-19T01:35:17.244Z,74.43
2018-03-19T01:36:17.447Z,74.34
2018-03-19T01:37:17.475Z,75
2018-03-19T01:38:17.130Z,75
2018-03-19T01:39:17.361Z,74.81
2018-03-19T01:40:17.159Z,74.9
2018-03-19T01:41:17.306Z,75.85
2018-03-19T01:42:17.284Z,75.57
2018-03-19T01:43:17.262Z,75.47
2018-03-19T01:44:17.230Z,74.81
2018-03-19T01:45:16.939Z,74.53
2018-03-19T01:46:16.910Z,75.47
2018-03-19T01:47:16.884Z,76.04
2018-03-19T01:48:17.127Z,76.14
2018-03-19T01:49:17.096Z,75.76
2018-03-19T01:50:16.801Z,76.23
2018-03-19T01:51:16.786Z,76.7
2018-03-19T01:52:17.220Z,76.23
2018-03-19T01:53:16.726Z,76.42
2018-03-19T01:54:16.961Z,76.98
2018-03-19T01:55:16.671Z,77.51
2018-03-19T01:56:16.914Z,77.13
2018-03-19T01:57:16.884Z,76.95
2018-03-19T01:58:16.592Z,76.76
2018-03-19T01:59:16.840Z,77.23
2018-03-19T02:00:16.806Z,77.98
2018-03-19T02:01:16.517Z,77.42
2018-03-19T02:02:16.494Z,77.36
2018-03-19T02:03:16.738Z,76.38
2018-03-19T02:04:16.432Z,76.57
2018-03-19T02:05:16.725Z,76.47
2018-03-19T02:06:16.392Z,76.66
2018-03-19T02:07:16.623Z,76.38
2018-03-19T02:08:16.600Z,76.85
2018-03-19T02:09:16.302Z,76.19
2018-03-19T02:10:16.544Z,76.66
2018-03-19T02:11:16.514Z,76.38
2018-03-19T02:12:16.501Z,76
2018-03-19T02:13:16.459Z,76.09
2018-03-19T02:14:16.518Z,75.9
2018-03-19T02:15:16.191Z,76.19
2018-03-19T02:16:16.115Z,76.66
2018-03-19T02:17:16.092Z,76.38
2018-03-19T02:18:16.334Z,77.13
2018-03-19T02:19:16.032Z,77.23
2018-03-19T02:20:16.273Z,77.42
2018-03-19T02:21:16.080Z,77.42
2018-03-19T02:22:16.102Z,77.61
2018-03-19T02:23:15.970Z,77.89
2018-03-19T02:24:15.942Z,77.8
2018-03-19T02:25:16.165Z,78.27
2018-03-19T02:26:16.139Z,77.98
2018-03-19T02:27:16.109Z,77.61
2018-03-19T02:28:15.790Z,78.55
2018-03-19T02:29:16.030Z,78.83
2018-03-19T02:30:16.025Z,78.83
2018-03-19T02:31:15.987Z,78.36
2018-03-19T02:32:15.959Z,78.36
2018-03-19T02:33:15.661Z,78.45
2018-03-19T02:34:15.642Z,78.17
2018-03-19T02:35:15.936Z,77.89
2018-03-19T02:36:15.946Z,77.7
2018-03-19T02:37:15.552Z,77.7
2018-03-19T02:38:15.526Z,77.8
2018-03-19T02:39:15.498Z,78.45
2018-03-19T02:40:15.748Z,77.98
2018-03-19T02:41:15.710Z,77.7
2018-03-19T02:42:15.448Z,77.98
2018-03-19T02:43:15.661Z,77.42
2018-03-19T02:44:15.366Z,78.64
2018-03-19T02:45:15.338Z,78.64
2018-03-19T02:46:15.310Z,78.64
2018-03-19T02:47:15.303Z,78.74
2018-03-19T02:48:15.257Z,79.11
2018-03-19T02:49:15.493Z,79.49
2018-03-19T02:50:15.469Z,80.06
2018-03-19T02:51:15.445Z,80.34
2018-03-19T02:52:15.149Z,80.34
2018-03-19T02:53:15.387Z,80.91
2018-03-19T02:54:15.361Z,80.53
2018-03-19T02:55:15.334Z,80.63
2018-03-19T02:56:15.342Z,80.06
2018-03-19T02:57:15.378Z,79.78
2018-03-19T02:58:15.019Z,79.78
2018-03-19T02:59:15.299Z,79.59
2018-03-19T03:00:15.206Z,79.21
2018-03-19T03:01:15.232Z,79.3
2018-03-19T03:02:15.158Z,79.49
2018-03-19T03:03:14.850Z,78.83
2018-03-19T03:04:15.092Z,79.3
2018-03-19T03:05:14.875Z,79.21
2018-03-19T03:06:14.774Z,79.11
2018-03-19T03:07:15.010Z,78.64
2018-03-19T03:08:14.988Z,77.98
2018-03-19T03:09:14.699Z,77.89
2018-03-19T03:10:14.926Z,78.55
2018-03-19T03:11:14.638Z,79.11
2018-03-19T03:12:14.628Z,79.87
2018-03-19T03:13:14.844Z,80.34
2018-03-19T03:14:14.556Z,80.82
2018-03-19T03:15:14.530Z,81.01
2018-03-19T03:16:14.770Z,81.1
2018-03-19T03:17:14.476Z,81.38
2018-03-19T03:18:14.449Z,82.14
2018-03-19T03:19:14.685Z,81.85
2018-03-19T03:20:14.662Z,82.04
2018-03-19T03:21:14.700Z,82.32
2018-03-19T03:22:14.608Z,82.51
2018-03-19T03:23:14.597Z,81.1
2018-03-19T03:24:14.551Z,81.48
2018-03-19T03:25:14.523Z,81.57
2018-03-19T03:26:14.501Z,81.48
2018-03-19T03:27:14.477Z,81.85
2018-03-19T03:28:14.445Z,82.23
2018-03-19T03:29:14.422Z,82.51
2018-03-19T03:30:14.131Z,82.7
2018-03-19T03:31:14.375Z,82.89
2018-03-19T03:32:14.339Z,83.46
2018-03-19T03:33:14.310Z,83.74
2018-03-19T03:34:14.285Z,84.12
2018-03-19T03:35:14.257Z,84.69
2018-03-19T03:36:13.961Z,85.25
2018-03-19T03:37:13.968Z,85.63
2018-03-19T03:38:14.180Z,86.67
2018-03-19T03:39:14.150Z,86.57
2018-03-19T03:40:13.854Z,86.57
2018-03-19T03:41:14.093Z,86.95
2018-03-19T03:42:14.085Z,87.14
2018-03-19T03:43:13.779Z,87.05
2018-03-19T03:44:14.012Z,87.33
2018-03-19T03:45:13.721Z,87.52
2018-03-19T03:46:13.701Z,87.43
2018-03-19T03:47:14.048Z,87.52
2018-03-19T03:48:14.004Z,87.8
2018-03-19T03:49:13.620Z,88.37
2018-03-19T03:50:13.855Z,88.93
2018-03-19T03:51:13.828Z,88.18
2018-03-19T03:52:14.000Z,88.46
2018-03-19T03:53:13.770Z,87.71
2018-03-19T03:54:13.834Z,87.85
2018-03-19T03:55:13.448Z,88.79
2018-03-19T03:56:13.689Z,88.51
2018-03-19T03:57:13.397Z,88.79
2018-03-19T03:58:13.372Z,88.79
2018-03-19T03:59:13.663Z,88.89
2018-03-19T04:00:13.318Z,88.98
2018-03-19T04:01:13.285Z,88.79
2018-03-19T04:02:13.262Z,89.45
2018-03-19T04:03:13.309Z,89.64
2018-03-19T04:04:13.473Z,89.93
2018-03-19T04:05:13.441Z,89.36
2018-03-19T04:06:13.429Z,89.55
2018-03-19T04:07:13.126Z,90.68
2018-03-19T04:08:13.099Z,90.4
2018-03-19T04:09:13.071Z,90.12
2018-03-19T04:10:13.046Z,89.74
2018-03-19T04:11:13.012Z,89.36
2018-03-19T04:12:13.250Z,90.02
2018-03-19T04:13:13.228Z,90.12
2018-03-19T04:14:12.946Z,91.06
2018-03-19T04:15:13.176Z,91.16
2018-03-19T04:16:12.878Z,91.72
2018-03-19T04:17:13.137Z,91.82
2018-03-19T04:18:12.826Z,91.72
2018-03-19T04:19:12.794Z,91.06
2018-03-19T04:20:13.041Z,91.91
2018-03-19T04:21:13.011Z,91.35
2018-03-19T04:22:12.985Z,91.72
2018-03-19T04:23:12.686Z,92.1
2018-03-19T04:24:12.672Z,92.95
2018-03-19T04:25:12.901Z,92.1
2018-03-19T04:26:12.866Z,91.82
2018-03-19T04:27:12.844Z,92.29
2018-03-19T04:28:12.552Z,92.76
2018-03-19T04:29:12.526Z,93.32
2018-03-19T04:30:12.501Z,92.57
2018-03-19T04:31:12.730Z,92.85
2018-03-19T04:32:12.708Z,92.95
2018-03-19T04:33:12.672Z,92.66
2018-03-19T04:34:12.648Z,92.57
2018-03-19T04:35:12.354Z,93.7
2018-03-19T04:36:12.592Z,94.08
2018-03-19T04:37:12.313Z,94.27
2018-03-19T04:38:12.537Z,94.36
2018-03-19T04:39:12.511Z,95.4
2018-03-19T04:40:12.226Z,95.4
2018-03-19T04:41:12.477Z,95.59
2018-03-19T04:42:12.168Z,95.4
2018-03-19T04:43:12.407Z,95.59
2018-03-19T04:44:12.112Z,96.53
2018-03-19T04:45:12.344Z,96.72
2018-03-19T04:46:12.058Z,96.63
2018-03-19T04:47:12.293Z,96.25
2018-03-19T04:48:12.270Z,96.63
2018-03-19T04:49:12.236Z,96.91
2018-03-19T04:50:12.213Z,97
2018-03-19T04:51:12.185Z,96.63
2018-03-19T04:52:12.160Z,96.91
2018-03-19T04:53:12.140Z,95.97
2018-03-19T04:54:12.106Z,95.78
2018-03-19T04:55:12.073Z,95.87
2018-03-19T04:56:11.782Z,95.87
2018-03-19T04:57:11.751Z,96.44
2018-03-19T04:58:11.992Z,95.59
2018-03-19T04:59:11.700Z,95.87
2018-03-19T05:00:11.667Z,95.4
2018-03-19T05:01:11.647Z,95.68
2018-03-19T05:02:11.616Z,96.34
2018-03-19T05:03:11.585Z,96.15
2018-03-19T05:04:11.822Z,96.06
2018-03-19T05:05:11.800Z,95.87
2018-03-19T05:06:11.768Z,96.15
2018-03-19T05:07:11.505Z,95.59
2018-03-19T05:08:11.722Z,95.87
2018-03-19T05:09:11.425Z,95.5
2018-03-19T05:10:11.395Z,95.87
2018-03-19T05:11:11.702Z,95.78
2018-03-19T05:12:11.605Z,96.91
2018-03-19T05:13:11.315Z,96.81
2018-03-19T05:14:11.546Z,97.19
2018-03-19T05:15:11.520Z,97
2018-03-19T05:16:11.489Z,96.06
2018-03-19T05:17:11.203Z,97.67
2018-03-19T05:18:11.178Z,97.57
2018-03-19T05:19:11.149Z,97.85
2018-03-19T05:20:11.380Z,97.38
2018-03-19T05:21:11.355Z,97.67
2018-03-19T05:22:11.327Z,96.72
2018-03-19T05:23:11.302Z,96.81
2018-03-19T05:24:11.279Z,97.76
2018-03-19T05:25:11.244Z,97.29
2018-03-19T05:26:10.956Z,97.19
2018-03-19T05:27:11.185Z,97.1
2018-03-19T05:28:10.904Z,96.81
2018-03-19T05:29:11.144Z,96.63
2018-03-19T05:30:11.112Z,96.81
2018-03-19T05:31:10.813Z,98.04
2018-03-19T05:32:10.783Z,97.38
2018-03-19T05:33:11.112Z,97.95
2018-03-19T05:34:10.997Z,97.19
2018-03-19T05:35:10.701Z,97.48
2018-03-19T05:36:10.938Z,97.67
2018-03-19T05:37:10.908Z,98.42
2018-03-19T05:38:10.889Z,97.67
2018-03-19T05:39:10.861Z,97.48
2018-03-19T05:40:10.561Z,97.67
2018-03-19T05:41:10.804Z,97.85
2018-03-19T05:42:10.800Z,99.08
2018-03-19T05:43:10.742Z,97.57
2018-03-19T05:44:10.716Z,97.29
2018-03-19T05:45:10.424Z,97.1
2018-03-19T05:46:10.659Z,96.63
2018-03-19T05:47:10.647Z,97.48
2018-03-19T05:48:10.413Z,97.1
2018-03-19T05:49:10.576Z,97.1
2018-03-19T05:50:10.294Z,97.38
2018-03-19T05:51:10.256Z,97.67
2018-03-19T05:52:10.700Z,96.72
2018-03-19T05:53:10.200Z,96.34
2018-03-19T05:54:10.436Z,96.34
2018-03-19T05:55:10.155Z,96.44
2018-03-19T05:56:10.385Z,95.87
2018-03-19T05:57:10.357Z,96.06
2018-03-19T05:58:10.331Z,96.15
2018-03-19T05:59:10.036Z,96.44
2018-03-19T06:00:10.277Z,96.25
2018-03-19T06:01:10.254Z,96.25
2018-03-19T06:02:09.955Z,96.25
2018-03-19T06:03:09.928Z,95.97
2018-03-19T06:04:09.901Z,96.25
2018-03-19T06:05:10.140Z,95.97
2018-03-19T06:06:10.102Z,96.25
2018-03-19T06:07:09.815Z,96.44
2018-03-19T06:08:10.053Z,95.78
2018-03-19T06:09:10.025Z,95.68
2018-03-19T06:10:10.022Z,95.97
2018-03-19T06:11:09.969Z,95.4
2018-03-19T06:12:09.673Z,96.34
2018-03-19T06:13:09.922Z,96.44
2018-03-19T06:14:09.626Z,95.97
2018-03-19T06:15:09.598Z,95.78
2018-03-19T06:16:09.564Z,95.87
2018-03-19T06:17:09.574Z,95.87
2018-03-19T06:18:09.787Z,95.21
2018-03-19T06:19:09.483Z,95.21
2018-03-19T06:20:09.740Z,95.21
2018-03-19T06:21:09.695Z,94.93
2018-03-19T06:22:09.664Z,94.36
2018-03-19T06:23:09.379Z,94.46
2018-03-19T06:24:09.609Z,94.36
2018-03-19T06:25:09.578Z,95.21
2018-03-19T06:26:09.553Z,95.21
2018-03-19T06:27:09.568Z,95.03
2018-03-19T06:28:09.268Z,94.46
2018-03-19T06:29:09.479Z,94.36
2018-03-19T06:30:09.443Z,92.85
2018-03-19T06:31:09.418Z,92.47
2018-03-19T06:32:09.124Z,92.29
2018-03-19T06:33:09.387Z,92.1
2018-03-19T06:34:09.339Z,92.85
2018-03-19T06:35:09.086Z,91.82
2018-03-19T06:36:09.289Z,92.19
2018-03-19T06:37:09.093Z,92.05
2018-03-19T06:38:09.349Z,91.11
2018-03-19T06:39:09.203Z,90.73
2018-03-19T06:40:09.204Z,90.45
2018-03-19T06:41:08.883Z,90.07
2018-03-19T06:42:08.851Z,90.45
2018-03-19T06:43:08.827Z,90.45
2018-03-19T06:44:09.150Z,90.26
2018-03-19T06:45:08.776Z,90.35
2018-03-19T06:46:09.009Z,90.64
2018-03-19T06:47:08.749Z,91.2
2018-03-19T06:48:08.694Z,90.35
2018-03-19T06:49:08.716Z,89.69
2018-03-19T06:50:08.650Z,89.78
2018-03-19T06:51:08.870Z,89.59
2018-03-19T06:52:08.743Z,89.88
2018-03-19T06:53:08.559Z,89.03
2018-03-19T06:54:08.790Z,88.09
2018-03-19T06:55:08.494Z,87.71
2018-03-19T06:56:08.740Z,87.52
2018-03-19T06:57:08.439Z,87.71
2018-03-19T06:58:08.681Z,87.05
2018-03-19T06:59:08.681Z,86.95
2018-03-19T07:00:08.364Z,87.62
2018-03-19T07:01:08.651Z,87.43
2018-03-19T07:02:08.573Z,87.14
2018-03-19T07:03:08.281Z,86.76
2018-03-19T07:04:08.249Z,87.24
2018-03-19T07:05:08.491Z,86.57
2018-03-19T07:06:08.466Z,86.95
2018-03-19T07:07:08.443Z,86.76
2018-03-19T07:08:08.144Z,86.38
2018-03-19T07:09:08.380Z,86.1
2018-03-19T07:10:08.366Z,85.72
2018-03-19T07:11:08.341Z,85.44
2018-03-19T07:12:08.040Z,85.63
2018-03-19T07:13:08.277Z,85.25
2018-03-19T07:14:08.009Z,84.88
2018-03-19T07:15:07.988Z,84.31
2018-03-19T07:16:08.201Z,84.31
2018-03-19T07:17:07.905Z,83.93
2018-03-19T07:18:08.143Z,83.84
2018-03-19T07:19:07.848Z,84.59
2018-03-19T07:20:07.826Z,83.93
2018-03-19T07:21:08.072Z,84.03
2018-03-19T07:22:07.775Z,84.35
2018-03-19T07:23:08.008Z,83.78
2018-03-19T07:24:08.086Z,83.22
2018-03-19T07:25:08.040Z,82.84
2018-03-19T07:26:07.932Z,81.99
2018-03-19T07:27:07.637Z,82.09
2018-03-19T07:28:07.874Z,82.75
2018-03-19T07:29:07.635Z,82.93
2018-03-19T07:30:07.561Z,83.31
2018-03-19T07:31:07.807Z,82.75
2018-03-19T07:32:07.845Z,82.65
2018-03-19T07:33:07.743Z,81.61
2018-03-19T07:34:07.474Z,80.85
2018-03-19T07:35:07.695Z,80.38
2018-03-19T07:36:07.403Z,81.14
2018-03-19T07:37:07.643Z,81.14
2018-03-19T07:38:07.617Z,80.95
2018-03-19T07:39:07.328Z,80.85
2018-03-19T07:40:07.563Z,80.38
2018-03-19T07:41:07.538Z,80.95
2018-03-19T07:42:07.576Z,81.04
2018-03-19T07:43:07.482Z,80.85
2018-03-19T07:44:07.457Z,81.52
2018-03-19T07:45:07.314Z,81.33
2018-03-19T07:46:07.136Z,81.61
2018-03-19T07:47:07.198Z,81.33
2018-03-19T07:48:07.359Z,80.66
2018-03-19T07:49:07.327Z,80
2018-03-19T07:50:07.037Z,79.44
2018-03-19T07:51:07.333Z,79.25
2018-03-19T07:52:07.308Z,78.5
2018-03-19T07:53:06.956Z,78.5
2018-03-19T07:54:07.203Z,78.21
2018-03-19T07:55:06.922Z,78.68
2018-03-19T07:56:07.147Z,78.5
2018-03-19T07:57:07.127Z,78.59
2018-03-19T07:58:07.096Z,79.16
2018-03-19T07:59:06.860Z,79.06
2018-03-19T08:00:07.045Z,78.97
2018-03-19T08:01:06.749Z,78.5
2018-03-19T08:02:06.987Z,78.02
2018-03-19T08:03:06.963Z,78.31
2018-03-19T08:04:06.933Z,78.4
2018-03-19T08:05:06.911Z,77.64
2018-03-19T08:06:06.620Z,77.74
2018-03-19T08:07:06.591Z,77.45
2018-03-19T08:08:06.569Z,77.93
2018-03-19T08:09:06.560Z,77.45
2018-03-19T08:10:06.522Z,77.45
2018-03-19T08:11:06.494Z,76.89
2018-03-19T08:12:06.793Z,76.98
2018-03-19T08:13:06.438Z,77.02
2018-03-19T08:14:06.413Z,77.12
2018-03-19T08:15:06.413Z,77.02
2018-03-19T08:16:06.629Z,76.64
2018-03-19T08:17:06.600Z,76.93
2018-03-19T08:18:06.315Z,77.59
2018-03-19T08:19:06.555Z,77.12
2018-03-19T08:20:06.262Z,77.69
2018-03-19T08:21:06.235Z,77.5
2018-03-19T08:22:06.551Z,77.12
2018-03-19T08:23:06.187Z,75.79
2018-03-19T08:24:06.432Z,74.95
2018-03-19T08:25:06.136Z,74.79
2018-03-19T08:26:06.379Z,72.47
2018-03-19T08:27:06.357Z,69.22
2018-03-19T08:28:06.073Z,66.32
2018-03-19T08:29:06.311Z,63.51
2018-03-19T08:30:06.287Z,61.24
2018-03-19T08:31:06.124Z,59.75
2018-03-19T08:32:06.244Z,58.99
2018-03-19T08:33:06.316Z,58.14
2018-03-19T08:34:06.315Z,57.4
2018-03-19T08:35:06.244Z,56.46
2018-03-19T08:36:05.950Z,55.32
2018-03-19T08:37:05.878Z,54.68
2018-03-19T08:38:05.886Z,54.39
2018-03-19T08:39:05.839Z,54.49
2018-03-19T08:40:06.089Z,53.83
2018-03-19T08:41:05.807Z,53.28
2018-03-19T08:42:06.131Z,52.43
2018-03-19T08:43:05.811Z,51.22
2018-03-19T08:44:06.017Z,50.65
2018-03-19T08:45:06.007Z,51.2
2018-03-19T08:46:05.735Z,51.1
2018-03-19T08:47:05.707Z,51.64
2018-03-19T08:48:05.680Z,52.66
2018-03-19T08:49:05.744Z,53.23
2018-03-19T08:50:05.655Z,54.34
2018-03-19T08:51:06.021Z,55.74
2018-03-19T08:52:05.934Z,56.3
2018-03-19T08:53:05.621Z,57.25
2018-03-19T08:54:05.842Z,57.35
2018-03-19T08:55:05.829Z,58.29
2018-03-19T08:56:05.920Z,58.55
2018-03-19T08:57:05.786Z,58.55
2018-03-19T08:58:05.817Z,58.74
2018-03-19T08:59:05.530Z,59.12
2018-03-19T09:00:05.472Z,59.05
2018-03-19T09:01:05.575Z,58.86
2018-03-19T09:02:05.751Z,59.44
2018-03-19T09:03:05.677Z,59.63
2018-03-19T09:04:05.459Z,59.05
2018-03-19T09:05:05.379Z,59.25
2018-03-19T09:06:05.357Z,59.59
2018-03-19T09:07:05.606Z,59.91
2018-03-19T09:08:05.586Z,59.69
2018-03-19T09:09:05.616Z,59.25
2018-03-19T09:10:05.660Z,58.77
2018-03-19T09:11:05.536Z,58.04
2018-03-19T09:12:05.250Z,57.76
2018-03-19T09:13:05.495Z,57.76
2018-03-19T09:14:05.523Z,57.38
2018-03-19T09:15:05.458Z,57.09
2018-03-19T09:16:05.576Z,56.52
2018-03-19T09:17:05.171Z,57.64
2018-03-19T09:18:05.417Z,58.29
2018-03-19T09:19:05.275Z,57.92
2018-03-19T09:20:05.365Z,57.73
2018-03-19T09:21:05.346Z,58.67
2018-03-19T09:22:05.065Z,59.25
2018-03-19T09:23:05.311Z,59.25
2018-03-19T09:24:05.289Z,58.86
2018-03-19T09:25:05.267Z,59.53
2018-03-19T09:26:04.980Z,58.96
2018-03-19T09:27:04.967Z,58.8
2018-03-19T09:28:05.208Z,57.79
2018-03-19T09:29:05.190Z,56.2
2018-03-19T09:30:05.177Z,54.61
2018-03-19T09:31:04.953Z,53.38
2018-03-19T09:32:05.140Z,53.73
2018-03-19T09:33:04.909Z,53.92
2018-03-19T09:34:05.134Z,54.46
2018-03-19T09:35:04.878Z,55.04
2018-03-19T09:36:05.072Z,55.76
2018-03-19T09:37:05.128Z,56.43
2018-03-19T09:38:04.809Z,58.04
2018-03-19T09:39:05.076Z,58.14
2018-03-19T09:40:04.727Z,59.05
2018-03-19T09:41:04.980Z,60
2018-03-19T09:42:05.020Z,59.08
2018-03-19T09:43:05.164Z,57.57
2018-03-19T09:44:04.711Z,57.4
2018-03-19T09:45:04.917Z,57.76
2018-03-19T09:46:04.659Z,58.04
2018-03-19T09:47:04.944Z,58.7
2018-03-19T09:48:04.912Z,59.46
2018-03-19T09:49:04.830Z,58.51
2018-03-19T09:50:04.814Z,58.51
2018-03-19T09:51:04.535Z,58.07
2018-03-19T09:52:04.576Z,57.59
2018-03-19T09:53:04.494Z,57.38
2018-03-19T09:54:04.741Z,58.14
2018-03-19T09:55:04.797Z,57.95
2018-03-19T09:56:04.444Z,57.85
2018-03-19T09:57:04.691Z,57.95
2018-03-19T09:58:04.406Z,57.4
2018-03-19T09:59:04.658Z,56.2
2018-03-19T10:00:04.638Z,55.25
2018-03-19T10:01:04.665Z,55.54
2018-03-19T10:02:04.615Z,55.89
2018-03-19T10:03:04.315Z,56.17
2018-03-19T10:04:04.565Z,56.49
2018-03-19T10:05:04.280Z,56.27
2018-03-19T10:06:04.665Z,56.84
2018-03-19T10:07:04.247Z,57.95
2018-03-19T10:08:04.249Z,57.47
2018-03-19T10:09:04.208Z,58.23
2018-03-19T10:10:04.282Z,58.83
2018-03-19T10:11:04.464Z,57.85
2018-03-19T10:12:04.156Z,57.85
2018-03-19T10:13:04.444Z,57.76
2018-03-19T10:14:04.418Z,58.23
2018-03-19T10:15:04.445Z,58.17
2018-03-19T10:16:04.359Z,58.54
2018-03-19T10:17:04.074Z,57.79
2018-03-19T10:18:04.054Z,57.4
2018-03-19T10:19:04.310Z,56.27
2018-03-19T10:20:04.287Z,56.17
2018-03-19T10:21:04.276Z,55.63
2018-03-19T10:22:04.267Z,55.16
2018-03-19T10:23:03.972Z,54.39
2018-03-19T10:24:04.237Z,54.68
2018-03-19T10:25:04.206Z,54.58
2018-03-19T10:26:03.929Z,55.44
2018-03-19T10:27:04.206Z,55.57
2018-03-19T10:28:04.156Z,54.71
2018-03-19T10:29:04.148Z,54.33
2018-03-19T10:30:03.860Z,54.14
2018-03-19T10:31:04.107Z,55.47
2018-03-19T10:32:03.861Z,54.14
2018-03-19T10:33:03.839Z,54.33
2018-03-19T10:34:04.084Z,55.47
2018-03-19T10:35:04.047Z,55.28
2018-03-19T10:36:03.776Z,56.51
2018-03-19T10:37:03.745Z,57.43
2018-03-19T10:38:04.042Z,56.8
2018-03-19T10:39:03.708Z,56.61
2018-03-19T10:40:03.730Z,56.04
2018-03-19T10:41:03.973Z,55.57
2018-03-19T10:42:03.932Z,54.43
2018-03-19T10:43:03.934Z,54.9
2018-03-19T10:44:04.053Z,55.11
2018-03-19T10:45:03.877Z,54.55
2018-03-19T10:46:03.876Z,54.61
2018-03-19T10:47:03.578Z,54.52
2018-03-19T10:48:03.848Z,53.19
2018-03-19T10:49:03.552Z,54.52
2018-03-19T10:50:03.568Z,56.32
2018-03-19T10:51:03.570Z,56.13
2018-03-19T10:52:03.676Z,56.45
2018-03-19T10:53:03.514Z,55.3
2018-03-19T10:54:03.746Z,53.22
2018-03-19T10:55:03.459Z,52.39
2018-03-19T10:56:03.447Z,51.62
2018-03-19T10:57:03.700Z,51.34
2018-03-19T10:58:03.682Z,52.39
2018-03-19T10:59:03.672Z,52.22
2018-03-19T11:00:03.666Z,52.8
2018-03-19T11:01:03.376Z,51.93
2018-03-19T11:02:03.364Z,52.44
2018-03-19T11:03:03.351Z,51.58
2018-03-19T11:04:03.606Z,51.99
2018-03-19T11:05:03.599Z,51.89
2018-03-19T11:06:03.581Z,50.94
2018-03-19T11:07:03.569Z,50.75
2018-03-19T11:08:03.568Z,51.14
2018-03-19T11:09:03.288Z,51.42
2018-03-19T11:10:03.540Z,50.56
2018-03-19T11:11:03.265Z,50.73
2018-03-19T11:12:03.773Z,50.25
2018-03-19T11:13:03.506Z,50.82
2018-03-19T11:14:03.230Z,50.25
2018-03-19T11:15:03.497Z,50.27
2018-03-19T11:16:03.216Z,48.94
2018-03-19T11:17:03.539Z,48.85
2018-03-19T11:18:03.466Z,48.85
2018-03-19T11:19:03.189Z,47.89
2018-03-19T11:20:03.552Z,48.27
2018-03-19T11:21:03.445Z,49.23
2018-03-19T11:22:03.162Z,49.13
2018-03-19T11:23:03.208Z,48.85
2018-03-19T11:24:03.410Z,49.2
2018-03-19T11:25:03.405Z,50.44
2018-03-19T11:26:03.396Z,50.63
2018-03-19T11:27:03.384Z,50.56
2018-03-19T11:28:03.117Z,50.75
2018-03-19T11:29:03.368Z,50.37
2018-03-19T11:30:03.211Z,49.42
2018-03-19T11:31:03.354Z,49.23
2018-03-19T11:32:03.083Z,48.58
2018-03-19T11:33:03.077Z,48.58
2018-03-19T11:34:03.068Z,48.58
2018-03-19T11:35:03.328Z,48.97
2018-03-19T11:36:03.330Z,49.63
2018-03-19T11:37:03.317Z,49.82
2018-03-19T11:38:03.309Z,49.56
2018-03-19T11:39:03.295Z,48.78
2018-03-19T11:40:03.293Z,48.3
2018-03-19T11:41:03.286Z,48.68
2018-03-19T11:42:03.010Z,48.87
2018-03-19T11:43:03.297Z,48.49
2018-03-19T11:44:03.273Z,48.58
2018-03-19T11:45:03.361Z,50.23
2018-03-19T11:46:02.991Z,50.71
2018-03-19T11:47:03.252Z,49.28
2018-03-19T11:48:02.973Z,48.42
2018-03-19T11:49:02.968Z,48.13
2018-03-19T11:50:02.962Z,48.61
2018-03-19T11:51:03.226Z,47.56
2018-03-19T11:52:03.211Z,47.75
2018-03-19T11:53:03.153Z,48.11
2018-03-19T11:54:02.944Z,48.3
2018-03-19T11:55:03.198Z,49.04
2018-03-19T11:56:03.191Z,49.26
2018-03-19T11:57:02.922Z,49.61
2018-03-19T11:58:03.259Z,50.21
2018-03-19T11:59:03.179Z,48.99
2018-03-19T12:00:02.903Z,48.87
2018-03-19T12:01:03.176Z,48.99
2018-03-19T12:02:02.894Z,48.23
2018-03-19T12:03:03.162Z,47.94
2018-03-19T12:04:03.152Z,46.7
2018-03-19T12:05:03.414Z,45.97
2018-03-19T12:06:03.145Z,46.63
2018-03-19T12:07:02.872Z,47.78
2018-03-19T12:08:03.128Z,46.47
2018-03-19T12:09:03.129Z,45.7
2018-03-19T12:10:03.124Z,45.7
2018-03-19T12:11:03.122Z,45.61
2018-03-19T12:12:03.294Z,46.75
2018-03-19T12:13:03.114Z,46.84
2018-03-19T12:14:03.151Z,47.61
2018-03-19T12:15:03.107Z,46.37
2018-03-19T12:16:03.100Z,45.89
2018-03-19T12:17:03.101Z,45.79
2018-03-19T12:18:03.092Z,45.92
2018-03-19T12:19:02.825Z,45.43
2018-03-19T12:20:02.822Z,44.87
2018-03-19T12:21:03.092Z,44.65
2018-03-19T12:22:03.082Z,44.48
2018-03-19T12:23:03.071Z,45.43
2018-03-19T12:24:02.807Z,44.77
2018-03-19T12:25:03.073Z,45.43
2018-03-19T12:26:03.130Z,44.51
2018-03-19T12:27:03.073Z,44.87
2018-03-19T12:28:03.064Z,44.96
2018-03-19T12:29:03.067Z,44.98
2018-03-19T12:30:02.799Z,44.6
2018-03-19T12:31:03.064Z,44.72
2018-03-19T12:32:03.056Z,44.81
2018-03-19T12:33:03.045Z,44.91
2018-03-19T12:34:02.782Z,45.6
2018-03-19T12:35:02.779Z,44.86
2018-03-19T12:36:03.042Z,42.76
2018-03-19T12:37:03.039Z,42.16
2018-03-19T12:38:03.034Z,42.83
2018-03-19T12:39:03.028Z,42.61
2018-03-19T12:40:02.761Z,43.26
2018-03-19T12:41:02.761Z,44.48
2018-03-19T12:42:02.760Z,45.53
2018-03-19T12:43:02.759Z,44.77
2018-03-19T12:44:03.019Z,45.06
2018-03-19T12:45:03.018Z,45.56
2018-03-19T12:46:03.012Z,44.51
2018-03-19T12:47:02.938Z,44.89
2018-03-19T12:48:03.010Z,44.29
2018-03-19T12:49:03.003Z,44.67
2018-03-19T12:50:03.010Z,44.96
2018-03-19T12:51:03.099Z,44.29
2018-03-19T12:52:03.007Z,44.98
2018-03-19T12:53:02.994Z,44.87
2018-03-19T12:54:02.771Z,45.72
2018-03-19T12:55:02.721Z,44.84